Aviation Digital Data Service (ADDS)

Output produced by METARs form (0807 UTC 19 July 2019)
found at http://www.aviationweather.gov/metar/data/
 
METAR text: KPWA 190753Z AUTO 18017KT 10SM CLR 28/21 A2988 RMK AO2 SLP096 T02780206
Conditions at: KPWA (OKLA CITY/WILEY , OK, US) observed 0753 UTC 19 July 2019
Temperature: 27.8°C (82°F)
Dewpoint: 20.6°C (69°F) [RH = 65%]
Pressure (altimeter): 29.88 inches Hg (1011.9 mb)
[Sea-level pressure: 1009.6 mb]
Winds: from the S (180 degrees) at 20 MPH (17 knots; 8.7 m/s)
Visibility: 10 or more miles (16+ km)
Ceiling: at least 12,000 feet AGL
Clouds: sky clear below 12,000 feet AGL
Weather: automated observation with no human augmentation;
there may or may not be significant weather present at this time